createdAt,value
2019-05-09T00:00:44.010Z,1.80
2019-05-09T00:03:15.721Z,1.90
2019-05-09T00:08:18.259Z,2.00
2019-05-09T00:10:49.902Z,1.85
2019-05-09T00:13:23.746Z,1.62
2019-05-09T00:15:55.347Z,1.62
2019-05-09T00:18:26.847Z,1.62
2019-05-09T00:21:04.893Z,1.72
2019-05-09T00:23:36.766Z,2.00
2019-05-09T00:28:43.986Z,1.70
2019-05-09T00:31:29.782Z,1.90
2019-05-09T00:36:35.990Z,1.75
2019-05-09T00:39:08.740Z,1.67
2019-05-09T00:44:19.312Z,1.60
2019-05-09T00:47:06.634Z,1.90
2019-05-09T00:49:38.345Z,1.57
2019-05-09T00:52:10.269Z,1.70
2019-05-09T00:54:43.769Z,1.57
2019-05-09T00:57:34.365Z,1.67
2019-05-09T01:00:14.572Z,1.72
2019-05-09T01:02:45.803Z,1.60
2019-05-09T01:05:17.365Z,1.52
2019-05-09T01:07:49.062Z,1.70
2019-05-09T01:10:20.737Z,1.70
2019-05-09T01:15:25.306Z,1.70
2019-05-09T01:17:56.841Z,1.67
2019-05-09T01:20:28.754Z,1.87
2019-05-09T01:25:33.335Z,1.60
2019-05-09T01:28:04.762Z,1.40
2019-05-09T01:33:35.263Z,1.37
2019-05-09T01:36:07.340Z,1.60
2019-05-09T01:38:39.299Z,1.77
2019-05-09T01:41:24.682Z,1.62
2019-05-09T01:43:44.443Z,1.87
2019-05-09T01:46:16.025Z,1.85
2019-05-09T01:48:47.794Z,1.72
2019-05-09T01:53:53.653Z,1.85
2019-05-09T01:56:24.735Z,1.70
2019-05-09T02:01:27.390Z,1.70
2019-05-09T02:03:59.310Z,1.50
2019-05-09T02:06:32.772Z,1.50
2019-05-09T02:09:06.798Z,1.80
2019-05-09T02:11:42.551Z,1.60
2019-05-09T02:14:14.701Z,1.67
2019-05-09T02:19:33.265Z,1.72
2019-05-09T02:22:08.458Z,1.50
2019-05-09T02:24:40.072Z,1.72
2019-05-09T02:27:13.247Z,1.65
2019-05-09T02:29:45.357Z,1.70
2019-05-09T02:32:17.073Z,1.70
2019-05-09T02:34:48.739Z,1.57
2019-05-09T02:39:51.309Z,1.40
2019-05-09T02:42:23.069Z,1.80
2019-05-09T02:44:54.741Z,1.60
2019-05-09T02:49:59.795Z,1.60
2019-05-09T02:52:31.630Z,1.60
2019-05-09T02:55:03.349Z,1.50
2019-05-09T02:57:37.446Z,1.50
2019-05-09T03:00:29.013Z,1.52
2019-05-09T03:03:08.945Z,1.60
2019-05-09T03:05:39.067Z,1.40
2019-05-09T03:08:11.297Z,1.50
2019-05-09T03:10:43.268Z,1.70
2019-05-09T03:13:14.801Z,1.60
2019-05-09T03:15:49.444Z,1.60
2019-05-09T03:18:21.388Z,1.50
2019-05-09T03:21:03.046Z,1.47
2019-05-09T03:23:34.784Z,1.52
2019-05-09T03:28:49.248Z,1.70
2019-05-09T03:31:21.917Z,1.57
2019-05-09T03:33:53.724Z,1.42
2019-05-09T03:38:57.836Z,1.50
2019-05-09T03:41:29.778Z,1.30
2019-05-09T03:46:48.529Z,1.62
2019-05-09T03:49:20.302Z,1.47
2019-05-09T03:51:51.813Z,1.50
2019-05-09T03:54:23.379Z,1.30
2019-05-09T03:57:03.052Z,1.32
2019-05-09T03:59:35.050Z,1.50
2019-05-09T04:02:09.828Z,1.30
2019-05-09T04:04:40.258Z,1.35
2019-05-09T04:07:12.255Z,1.30
2019-05-09T04:09:43.978Z,1.50
2019-05-09T04:12:17.958Z,1.40
2019-05-09T04:14:49.415Z,1.50
2019-05-09T04:17:20.830Z,1.60
2019-05-09T04:19:52.753Z,1.40
2019-05-09T04:24:57.644Z,1.30
2019-05-09T04:29:29.769Z,1.60
2019-05-09T04:34:32.814Z,1.50
2019-05-09T04:37:04.711Z,1.35
2019-05-09T04:42:08.401Z,1.43
2019-05-09T04:44:49.637Z,1.40
2019-05-09T04:47:19.364Z,1.40
2019-05-09T04:49:51.306Z,1.32
2019-05-09T04:52:22.882Z,1.40
2019-05-09T04:54:57.468Z,1.50
2019-05-09T04:57:29.332Z,1.30
2019-05-09T05:00:01.054Z,1.60
2019-05-09T05:02:44.058Z,1.40
2019-05-09T05:05:17.952Z,1.50
2019-05-09T05:07:49.305Z,1.50
2019-05-09T05:10:20.827Z,1.30
2019-05-09T05:12:52.599Z,1.25
2019-05-09T05:15:24.335Z,1.40
2019-05-09T05:17:58.237Z,1.30
2019-05-09T05:20:31.402Z,1.30
2019-05-09T05:23:19.057Z,1.50
2019-05-09T05:25:50.774Z,1.30
2019-05-09T05:30:53.302Z,1.40
2019-05-09T05:33:40.543Z,1.50
2019-05-09T05:36:12.306Z,1.42
2019-05-09T05:38:44.393Z,1.20
2019-05-09T05:41:18.145Z,1.22
2019-05-09T05:43:49.410Z,1.23
2019-05-09T05:46:51.531Z,1.20
2019-05-09T05:49:23.358Z,1.47
2019-05-09T05:51:57.494Z,1.32
2019-05-09T05:54:28.749Z,1.47
2019-05-09T05:59:31.388Z,1.40
2019-05-09T06:02:03.316Z,1.40
2019-05-09T06:04:35.260Z,1.67
2019-05-09T06:07:08.064Z,1.30
2019-05-09T06:09:39.879Z,1.30
2019-05-09T06:12:11.742Z,1.37
2019-05-09T06:17:14.303Z,1.47
2019-05-09T06:19:48.224Z,1.30
2019-05-09T06:22:20.585Z,1.22
2019-05-09T06:24:52.422Z,1.40
2019-05-09T06:27:24.289Z,1.27
2019-05-09T06:29:58.082Z,1.25
2019-05-09T06:32:29.392Z,1.40
2019-05-09T06:35:01.063Z,1.62
2019-05-09T06:37:32.774Z,1.20
2019-05-09T06:42:37.839Z,1.40
2019-05-09T06:45:31.775Z,1.20
2019-05-09T06:48:03.649Z,1.52
2019-05-09T06:50:37.298Z,1.55
2019-05-09T06:53:08.741Z,1.20
2019-05-09T06:58:29.310Z,1.30
2019-05-09T07:01:18.266Z,1.10
2019-05-09T07:03:52.446Z,1.50
2019-05-09T07:06:29.651Z,1.40
2019-05-09T07:09:14.261Z,1.20
2019-05-09T07:11:45.474Z,1.30
2019-05-09T07:14:33.042Z,1.30
2019-05-09T07:17:03.320Z,1.20
2019-05-09T07:19:35.065Z,1.20
2019-05-09T07:22:23.430Z,1.10
2019-05-09T07:25:18.652Z,1.30
2019-05-09T07:27:50.354Z,1.30
2019-05-09T07:30:40.906Z,1.20
2019-05-09T07:33:38.398Z,1.10
2019-05-09T07:36:10.301Z,1.30
2019-05-09T07:38:41.821Z,1.15
2019-05-09T07:41:13.649Z,1.10
2019-05-09T07:43:47.628Z,1.32
2019-05-09T07:46:28.430Z,1.20
2019-05-09T07:49:03.758Z,1.17
2019-05-09T07:54:21.232Z,1.00
2019-05-09T07:56:39.775Z,1.00
2019-05-09T08:01:42.423Z,1.20
2019-05-09T08:04:14.026Z,1.07
2019-05-09T08:06:48.430Z,1.20
2019-05-09T08:09:19.331Z,1.20
2019-05-09T08:11:51.029Z,1.10
2019-05-09T08:14:22.786Z,1.00
2019-05-09T08:19:38.992Z,1.20
2019-05-09T08:22:10.798Z,1.20
2019-05-09T08:24:42.409Z,0.90
2019-05-09T08:27:14.058Z,1.12
2019-05-09T08:29:47.875Z,1.00
2019-05-09T08:32:19.263Z,1.20
2019-05-09T08:34:50.862Z,1.20
2019-05-09T08:37:22.426Z,1.07
2019-05-09T08:39:54.066Z,1.00
2019-05-09T08:42:25.846Z,1.17
2019-05-09T08:44:57.896Z,1.22
2019-05-09T08:47:29.772Z,1.10
2019-05-09T08:50:13.073Z,1.10
2019-05-09T08:52:45.002Z,1.05
2019-05-09T08:55:17.470Z,1.20
2019-05-09T08:57:49.378Z,1.10
2019-05-09T09:00:21.019Z,1.10
2019-05-09T09:02:52.791Z,1.00
2019-05-09T09:05:24.416Z,1.10
2019-05-09T09:07:57.802Z,1.20
2019-05-09T09:10:29.552Z,0.93
2019-05-09T09:13:01.306Z,1.07
2019-05-09T09:15:55.818Z,1.07
2019-05-09T09:20:37.942Z,1.10
2019-05-09T09:23:09.848Z,1.20
2019-05-09T09:25:44.745Z,1.20
2019-05-09T09:30:48.501Z,1.05
2019-05-09T09:35:51.641Z,1.15
2019-05-09T09:38:23.395Z,1.10
2019-05-09T09:43:39.283Z,1.00
2019-05-09T09:46:14.667Z,1.00
2019-05-09T09:48:44.399Z,1.00
2019-05-09T09:51:18.331Z,0.90
2019-05-09T09:53:49.494Z,1.00
2019-05-09T09:56:22.605Z,1.07
2019-05-09T09:59:08.365Z,1.10
2019-05-09T10:01:42.318Z,1.10
2019-05-09T10:04:23.743Z,1.10
2019-05-09T10:06:53.147Z,0.90
2019-05-09T10:09:24.775Z,1.00
2019-05-09T10:12:00.039Z,1.02
2019-05-09T10:14:33.390Z,0.90
2019-05-09T10:17:33.312Z,1.10
2019-05-09T10:20:22.271Z,1.02
2019-05-09T10:23:00.272Z,1.10
2019-05-09T10:25:27.670Z,1.00
2019-05-09T10:27:59.373Z,1.02
2019-05-09T10:30:38.167Z,0.98
2019-05-09T10:33:09.429Z,0.98
2019-05-09T10:35:41.315Z,1.17
2019-05-09T10:38:13.321Z,1.10
2019-05-09T10:40:48.268Z,1.07
2019-05-09T10:43:39.015Z,1.20
2019-05-09T10:46:46.274Z,1.10
2019-05-09T10:49:03.634Z,0.95
2019-05-09T10:54:08.113Z,1.17
2019-05-09T10:56:39.800Z,1.10
2019-05-09T11:01:42.305Z,1.10
2019-05-09T11:04:14.580Z,1.07
2019-05-09T11:06:45.270Z,1.27
2019-05-09T11:09:18.277Z,1.10
2019-05-09T11:11:49.292Z,1.00
2019-05-09T11:14:32.101Z,1.10
2019-05-09T11:17:07.714Z,1.15
2019-05-09T11:19:28.868Z,1.05
2019-05-09T11:22:00.781Z,1.00
2019-05-09T11:27:08.283Z,1.20
2019-05-09T11:29:39.303Z,1.00
2019-05-09T11:32:10.875Z,0.93
2019-05-09T11:34:42.421Z,1.10
2019-05-09T11:37:14.032Z,1.17
2019-05-09T11:39:48.198Z,1.20
2019-05-09T11:42:19.751Z,0.93
2019-05-09T11:47:32.382Z,0.90
2019-05-09T11:49:57.811Z,1.07
2019-05-09T11:52:29.329Z,1.10
2019-05-09T11:55:01.301Z,1.00
2019-05-09T11:57:32.858Z,0.90
2019-05-09T12:00:05.046Z,0.90
2019-05-09T12:02:38.585Z,1.10
2019-05-09T12:07:41.378Z,0.90
2019-05-09T12:10:13.068Z,1.10
2019-05-09T12:12:47.703Z,1.20
2019-05-09T12:15:18.773Z,0.95
2019-05-09T12:17:57.912Z,1.30
2019-05-09T12:20:24.062Z,1.05
2019-05-09T12:22:58.193Z,1.20
2019-05-09T12:25:29.364Z,0.90
2019-05-09T12:28:01.014Z,0.90
2019-05-09T12:30:32.843Z,0.90
2019-05-09T12:33:04.377Z,1.00
2019-05-09T12:35:38.493Z,0.98
2019-05-09T12:38:09.577Z,1.00
2019-05-09T12:40:41.730Z,0.90
2019-05-09T12:45:44.055Z,1.02
2019-05-09T12:48:18.629Z,1.00
2019-05-09T12:50:49.297Z,0.93
2019-05-09T12:53:21.289Z,1.10
2019-05-09T12:56:00.744Z,1.10
2019-05-09T12:58:32.746Z,0.95
2019-05-09T13:03:38.014Z,0.88
2019-05-09T13:06:08.735Z,1.10
2019-05-09T13:11:11.294Z,1.05
2019-05-09T13:13:43.307Z,0.85
2019-05-09T13:16:47.466Z,1.00
2019-05-09T13:19:12.304Z,0.98
2019-05-09T13:21:43.817Z,1.10
2019-05-09T13:24:19.264Z,1.00
2019-05-09T13:26:51.442Z,0.90
2019-05-09T13:29:23.266Z,0.90
2019-05-09T13:31:57.666Z,0.90
2019-05-09T13:34:29.274Z,0.90
2019-05-09T13:37:00.801Z,0.80
2019-05-09T13:39:32.591Z,1.00
2019-05-09T13:42:04.301Z,1.00
2019-05-09T13:44:41.153Z,0.98
2019-05-09T13:47:11.000Z,1.00
2019-05-09T13:49:42.753Z,0.90
2019-05-09T13:54:45.359Z,0.90
2019-05-09T13:57:18.799Z,1.00
2019-05-09T13:59:50.794Z,1.10
2019-05-09T14:02:22.615Z,1.00
2019-05-09T14:04:54.390Z,0.98
2019-05-09T14:07:27.933Z,0.90
2019-05-09T14:09:59.731Z,0.82
2019-05-09T14:15:02.298Z,0.90
2019-05-09T14:17:46.032Z,1.10
2019-05-09T14:20:08.897Z,1.00
2019-05-09T14:22:40.977Z,0.85
2019-05-09T14:25:12.759Z,0.90
2019-05-09T14:30:19.597Z,0.80
2019-05-09T14:32:50.729Z,0.90
2019-05-09T14:37:53.754Z,1.10
2019-05-09T14:40:25.451Z,0.80
2019-05-09T14:42:57.863Z,0.90
2019-05-09T14:45:29.798Z,0.80
2019-05-09T14:48:01.346Z,0.80
2019-05-09T14:50:33.298Z,0.80
2019-05-09T14:53:04.804Z,0.85
2019-05-09T14:55:39.165Z,0.70
2019-05-09T14:58:10.299Z,0.90
2019-05-09T15:00:41.852Z,0.90
2019-05-09T15:03:13.755Z,0.78
2019-05-09T15:05:45.399Z,0.90
2019-05-09T15:08:18.088Z,0.90
2019-05-09T15:10:49.829Z,0.90
2019-05-09T15:13:21.737Z,0.88
2019-05-09T15:18:24.738Z,0.98
2019-05-09T15:23:29.389Z,0.80
2019-05-09T15:26:01.062Z,0.88
2019-05-09T15:28:32.780Z,1.00
2019-05-09T15:31:04.473Z,1.03
2019-05-09T15:33:37.504Z,1.00
2019-05-09T15:38:40.841Z,1.00
2019-05-09T15:41:12.573Z,1.10
2019-05-09T15:43:44.381Z,1.02
2019-05-09T15:46:24.746Z,0.90
2019-05-09T15:51:27.930Z,1.10
2019-05-09T15:54:00.049Z,1.20
2019-05-09T15:56:31.770Z,1.42
2019-05-09T15:59:03.375Z,1.10
2019-05-09T16:01:35.059Z,1.20
2019-05-09T16:04:08.610Z,1.20
2019-05-09T16:06:40.438Z,1.07
2019-05-09T16:09:12.247Z,1.00
2019-05-09T16:11:44.365Z,1.20
2019-05-09T16:14:18.447Z,1.02
2019-05-09T16:16:49.875Z,1.27
2019-05-09T16:19:21.733Z,0.95
2019-05-09T16:24:24.447Z,1.00
2019-05-09T16:26:57.839Z,1.00
2019-05-09T16:29:32.330Z,0.90
2019-05-09T16:32:03.301Z,1.17
2019-05-09T16:34:35.050Z,1.05
2019-05-09T16:37:07.626Z,1.20
2019-05-09T16:39:39.745Z,1.17
2019-05-09T16:44:42.320Z,1.10
2019-05-09T16:47:14.306Z,1.02
2019-05-09T16:49:47.751Z,1.10
2019-05-09T16:52:19.474Z,1.20
2019-05-09T16:54:53.428Z,1.15
2019-05-09T16:57:27.489Z,1.30
2019-05-09T16:59:58.743Z,0.90
2019-05-09T17:05:01.747Z,0.90
2019-05-09T17:10:04.162Z,0.98
2019-05-09T17:12:37.316Z,0.90
2019-05-09T17:15:09.391Z,1.15
2019-05-09T17:17:41.326Z,1.00
2019-05-09T17:20:14.959Z,0.90
2019-05-09T17:23:11.696Z,2.40
2019-05-09T17:25:39.373Z,1.12
2019-05-09T17:28:11.305Z,1.62
2019-05-09T17:30:42.815Z,1.27
2019-05-09T17:33:14.690Z,1.20
2019-05-09T17:38:18.048Z,1.02
2019-05-09T17:40:50.290Z,1.05
2019-05-09T17:43:22.073Z,0.90
2019-05-09T17:45:53.784Z,1.07
2019-05-09T17:55:18.178Z,1.10
2019-05-09T17:57:50.368Z,1.05
2019-05-09T18:00:23.747Z,0.95
2019-05-09T18:05:26.393Z,1.00
2019-05-09T18:07:58.070Z,1.10
2019-05-09T18:10:29.839Z,0.90
2019-05-09T18:13:01.412Z,1.00
2019-05-09T18:15:33.313Z,0.90
2019-05-09T18:18:04.870Z,1.20
2019-05-09T18:20:37.978Z,0.90
2019-05-09T18:23:09.734Z,0.98
2019-05-09T18:28:12.786Z,1.05
2019-05-09T18:33:21.445Z,0.90
2019-05-09T18:35:53.303Z,0.98
2019-05-09T18:38:34.283Z,0.90
2019-05-09T18:41:09.535Z,1.10
2019-05-09T18:43:39.729Z,0.90
2019-05-09T18:48:42.305Z,1.10
2019-05-09T18:51:13.898Z,0.90
2019-05-09T18:53:45.748Z,1.00
2019-05-09T18:58:48.311Z,0.80
2019-05-09T19:01:20.375Z,0.90
2019-05-09T19:06:33.870Z,1.00
2019-05-09T19:09:06.328Z,1.00
2019-05-09T19:11:38.704Z,0.93
2019-05-09T19:14:12.431Z,1.10
2019-05-09T19:16:53.819Z,1.10
2019-05-09T19:19:32.627Z,1.02
2019-05-09T19:22:21.055Z,1.10
2019-05-09T19:24:38.748Z,1.00
2019-05-09T19:29:41.311Z,1.10
2019-05-09T19:32:12.785Z,0.90
2019-05-09T19:34:44.515Z,1.15
2019-05-09T19:37:16.306Z,1.30
2019-05-09T19:39:47.860Z,1.12
2019-05-09T19:42:19.690Z,1.25
2019-05-09T19:44:51.417Z,0.80
2019-05-09T19:47:23.303Z,1.00
2019-05-09T19:49:55.059Z,0.90
2019-05-09T19:52:37.880Z,1.00
2019-05-09T19:55:00.632Z,1.00
2019-05-09T19:57:32.612Z,1.10
2019-05-09T20:00:04.077Z,1.00
2019-05-09T20:03:19.613Z,1.00
2019-05-09T20:05:51.252Z,1.00
2019-05-09T20:08:23.162Z,0.90
2019-05-09T20:11:21.066Z,1.10
2019-05-09T20:14:11.435Z,1.00
2019-05-09T20:16:46.688Z,1.10
2019-05-09T20:19:18.361Z,1.10
2019-05-09T20:21:50.066Z,0.90
2019-05-09T20:24:22.314Z,1.10
2019-05-09T20:26:53.824Z,1.20
2019-05-09T20:29:25.783Z,1.05
2019-05-09T20:34:28.310Z,1.00
2019-05-09T20:36:59.856Z,1.10
2019-05-09T20:41:27.048Z,0.97
2019-05-09T20:43:59.055Z,1.00
2019-05-09T20:46:31.274Z,1.15
2019-05-09T20:49:03.748Z,1.17
2019-05-09T20:54:20.009Z,1.25
2019-05-09T20:56:40.534Z,0.90
2019-05-09T20:59:12.377Z,1.10
2019-05-09T21:01:44.316Z,1.10
2019-05-09T21:04:16.310Z,1.00
2019-05-09T21:06:48.410Z,1.22
2019-05-09T21:09:20.349Z,0.90
2019-05-09T21:11:52.309Z,1.00
2019-05-09T21:14:24.301Z,1.07
2019-05-09T21:16:56.339Z,1.10
2019-05-09T21:19:28.310Z,1.10
2019-05-09T21:22:00.361Z,0.90
2019-05-09T21:24:32.326Z,1.10
2019-05-09T21:27:04.316Z,0.90
2019-05-09T21:29:36.332Z,1.10
2019-05-09T21:32:08.307Z,1.00
2019-05-09T21:34:39.842Z,0.90
2019-05-09T21:37:13.902Z,0.98
2019-05-09T21:39:45.350Z,1.07
2019-05-09T21:42:16.836Z,1.00
2019-05-09T21:44:48.615Z,0.80
2019-05-09T21:47:20.461Z,0.90
2019-05-09T21:49:52.274Z,0.90
2019-05-09T21:52:23.838Z,1.00
2019-05-09T21:54:55.605Z,0.98
2019-05-09T21:57:28.320Z,1.10
2019-05-09T22:01:01.334Z,0.77
2019-05-09T22:03:32.955Z,1.02
2019-05-09T22:06:04.774Z,0.90
2019-05-09T22:08:36.437Z,0.95
2019-05-09T22:11:08.329Z,1.00
2019-05-09T22:13:40.007Z,0.90
2019-05-09T22:16:11.770Z,0.90
2019-05-09T22:21:23.329Z,1.00
2019-05-09T22:23:56.721Z,0.93
2019-05-09T22:26:28.370Z,1.00
2019-05-09T22:29:00.047Z,1.00
2019-05-09T22:31:31.794Z,0.90
2019-05-09T22:34:03.362Z,1.00
2019-05-09T22:36:35.075Z,1.10
2019-05-09T22:39:08.318Z,1.00
2019-05-09T22:41:39.898Z,0.90
2019-05-09T22:44:11.654Z,0.80
2019-05-09T22:46:43.755Z,1.00
2019-05-09T22:51:46.280Z,1.15
2019-05-09T22:54:17.854Z,1.00
2019-05-09T22:56:49.805Z,0.98
2019-05-09T22:59:21.389Z,0.90
2019-05-09T23:01:53.019Z,1.10
2019-05-09T23:04:24.784Z,0.90
2019-05-09T23:06:56.655Z,0.80
2019-05-09T23:09:28.349Z,0.90
2019-05-09T23:12:07.529Z,1.00
2019-05-09T23:14:38.871Z,0.80
2019-05-09T23:17:11.498Z,0.90
2019-05-09T23:19:43.325Z,0.80
2019-05-09T23:22:15.073Z,0.80
2019-05-09T23:24:46.737Z,1.00
2019-05-09T23:27:19.978Z,0.90
2019-05-09T23:29:51.393Z,0.90
2019-05-09T23:32:36.309Z,1.10
2019-05-09T23:35:07.861Z,1.00
2019-05-09T23:37:39.390Z,0.98
2019-05-09T23:40:11.306Z,0.90
2019-05-09T23:42:43.622Z,0.85
2019-05-09T23:45:15.346Z,0.82
2019-05-09T23:47:46.937Z,0.82
2019-05-09T23:50:18.739Z,0.85
2019-05-09T23:55:39.010Z,0.90
2019-05-09T23:58:28.352Z,0.90
